Time;durP1;ratioP1;P1;durP2;ratioP2;P2;SDS_P1;SDS_P2;PMS_P1;PMS_P2;Temp;Humidity;BMP_temperature;BMP_pressure;BME280_temperature;BME280_humidity;BME280_pressure;Samples;Min_cycle;Max_cycle;Signal;HPM_P1;HPM_P2
2023/08/15 00:00:03;;;;;;;8.57;1.35;;;43.40;31.30;;;;;;5027152;28;20029;-60
2023/08/15 00:02:30;;;;;;;5.05;1.73;;;43.40;31.90;;;;;;5026460;28;20021;-57
2023/08/15 00:04:56;;;;;;;8.40;1.70;;;43.30;31.80;;;;;;5025627;28;20087;-58
2023/08/15 00:07:22;;;;;;;11.68;1.60;;;43.30;31.40;;;;;;5025374;28;20036;-58
2023/08/15 00:09:49;;;;;;;6.47;1.30;;;43.30;31.50;;;;;;5026988;28;20014;-59
2023/08/15 00:12:15;;;;;;;8.43;1.50;;;43.30;31.20;;;;;;5026396;28;20032;-55
2023/08/15 00:14:42;;;;;;;10.38;2.05;;;43.30;31.80;;;;;;5026474;28;20049;-55
2023/08/15 00:17:08;;;;;;;10.75;1.70;;;43.20;31.80;;;;;;5026589;28;20037;-57
2023/08/15 00:19:34;;;;;;;8.38;1.50;;;43.20;31.90;;;;;;5026604;28;20018;-59
2023/08/15 00:22:01;;;;;;;13.35;1.63;;;43.00;31.60;;;;;;5026926;28;20053;-56
2023/08/15 00:24:27;;;;;;;12.80;1.45;;;42.90;31.60;;;;;;5027132;28;20021;-56
2023/08/15 00:26:53;;;;;;;8.80;1.25;;;42.80;31.30;;;;;;5026284;28;20057;-57
2023/08/15 00:29:20;;;;;;;3.92;1.48;;;42.80;31.80;;;;;;5026212;28;20018;-57
2023/08/15 00:31:46;;;;;;;8.32;1.20;;;42.80;32.20;;;;;;5027138;28;20454;-57
2023/08/15 00:34:13;;;;;;;6.13;1.40;;;42.70;32.20;;;;;;5027571;28;20024;-59
2023/08/15 00:36:39;;;;;;;9.45;1.50;;;42.70;31.50;;;;;;5027281;28;20117;-56
2023/08/15 00:39:05;;;;;;;8.63;1.40;;;42.60;31.20;;;;;;5025260;28;20483;-58
2023/08/15 00:41:32;;;;;;;13.23;2.10;;;42.50;31.80;;;;;;5026604;28;20021;-56
2023/08/15 00:44:00;;;;;;;11.27;1.67;;;42.50;32.20;;;;;;5026605;28;20053;-57
2023/08/15 00:46:28;;;;;;;4.50;1.30;;;42.40;32.20;;;;;;5025129;28;20411;-56
2023/08/15 00:48:55;;;;;;;10.93;2.22;;;42.30;32.70;;;;;;5026183;28;20527;-56
2023/08/15 00:51:21;;;;;;;14.75;1.95;;;42.40;33.60;;;;;;5025623;28;20045;-53
2023/08/15 00:53:48;;;;;;;10.50;1.75;;;42.30;32.90;;;;;;5025705;28;20024;-57
2023/08/15 00:56:15;;;;;;;9.50;1.73;;;42.20;33.20;;;;;;5026035;28;20079;-59
2023/08/15 00:58:42;;;;;;;9.07;1.70;;;42.20;32.80;;;;;;5041150;28;20028;-57
2023/08/15 01:01:16;;;;;;;12.65;1.90;;;42.10;32.30;;;;;;5027068;28;20165;-58
2023/08/15 01:03:43;;;;;;;5.68;1.40;;;42.00;32.60;;;;;;5026772;28;20017;-60
2023/08/15 01:06:10;;;;;;;3.95;1.40;;;42.00;32.20;;;;;;5026334;28;20091;-56
2023/08/15 01:08:36;;;;;;;10.13;1.63;;;41.90;32.40;;;;;;5028352;28;21205;-57
2023/08/15 01:11:04;;;;;;;5.65;1.77;;;42.00;32.30;;;;;;5030428;28;20018;-56
2023/08/15 01:13:59;;;;;;;11.10;1.90;;;41.90;32.70;;;;;;5030275;28;20510;-57
2023/08/15 01:16:33;;;;;;;10.52;1.73;;;41.90;32.20;;;;;;5030210;28;20041;-57
2023/08/15 01:19:10;;;;;;;5.43;2.00;;;41.80;31.60;;;;;;5030405;28;20017;-57
2023/08/15 01:21:42;;;;;;;8.82;2.33;;;41.80;31.80;;;;;;5030920;28;20479;-56
2023/08/15 01:24:10;;;;;;;6.88;1.77;;;41.80;32.10;;;;;;5030668;28;20100;-55
2023/08/15 01:26:36;;;;;;;7.38;2.28;;;41.80;32.30;;;;;;5030393;28;20021;-56
2023/08/15 01:29:03;;;;;;;13.70;2.40;;;41.60;32.70;;;;;;5030259;28;20025;-58
2023/08/15 01:31:40;;;;;;;8.88;2.10;;;41.60;32.30;;;;;;5029834;28;20045;-57
2023/08/15 01:34:18;;;;;;;6.40;1.70;;;41.50;33.10;;;;;;5029353;28;20379;-57
2023/08/15 01:36:56;;;;;;;5.32;1.77;;;41.50;32.60;;;;;;5029115;28;20068;-59
2023/08/15 01:39:29;;;;;;;9.93;2.42;;;41.40;32.60;;;;;;5029486;28;20097;-60
2023/08/15 01:42:02;;;;;;;7.95;1.77;;;41.40;32.80;;;;;;5030019;28;20382;-54
2023/08/15 01:44:30;;;;;;;8.10;2.08;;;41.40;33.80;;;;;;5030809;28;20022;-58
2023/08/15 01:47:00;;;;;;;10.13;2.00;;;41.30;32.90;;;;;;5029188;28;20394;-58
2023/08/15 01:49:26;;;;;;;5.30;2.25;;;41.30;32.70;;;;;;5029822;28;20006;-56
2023/08/15 01:51:54;;;;;;;9.10;1.90;;;41.20;33.00;;;;;;5029728;28;20566;-58
2023/08/15 01:54:21;;;;;;;7.43;1.90;;;41.20;33.10;;;;;;5029346;28;20018;-61
2023/08/15 01:56:47;;;;;;;8.05;1.63;;;41.20;33.00;;;;;;5029874;28;20025;-54
2023/08/15 01:59:13;;;;;;;33.63;2.53;;;41.20;33.20;;;;;;5029596;28;20495;-58
2023/08/15 02:01:40;;;;;;;7.53;1.60;;;41.10;33.90;;;;;;5028682;28;20418;-57
2023/08/15 02:04:06;;;;;;;9.85;1.80;;;41.00;33.40;;;;;;5030144;28;20025;-58
2023/08/15 02:06:33;;;;;;;1999.90;242.45;;;41.00;34.50;;;;;;5030347;28;20049;-57
2023/08/15 02:08:59;;;;;;;16.45;2.70;;;40.90;33.60;;;;;;5029024;28;20014;-57
2023/08/15 02:11:25;;;;;;;25.10;2.60;;;40.90;33.90;;;;;;5028862;28;20021;-58
2023/08/15 02:13:54;;;;;;;48.38;3.40;;;40.80;33.90;;;;;;5028890;28;20399;-57
2023/08/15 02:16:20;;;;;;;10.32;2.55;;;40.80;33.70;;;;;;5028950;28;20454;-57
2023/08/15 02:18:47;;;;;;;10.18;2.13;;;40.70;33.70;;;;;;5028928;28;20069;-57
2023/08/15 02:21:14;;;;;;;29.88;3.38;;;40.70;34.20;;;;;;5029151;28;20044;-54
2023/08/15 02:23:40;;;;;;;15.68;2.40;;;40.60;34.10;;;;;;5029110;28;20025;-56
2023/08/15 02:26:07;;;;;;;9.82;2.08;;;40.60;34.20;;;;;;5028542;28;20032;-56
2023/08/15 02:28:33;;;;;;;12.55;2.58;;;40.60;34.50;;;;;;5029692;28;20422;-55
2023/08/15 02:30:59;;;;;;;26.92;3.47;;;40.50;35.00;;;;;;5028663;28;20018;-59
2023/08/15 02:33:26;;;;;;;31.08;2.95;;;40.40;35.00;;;;;;5027988;28;20018;-61
2023/08/15 02:35:53;;;;;;;17.75;2.60;;;40.30;35.10;;;;;;5028651;28;20435;-58
2023/08/15 02:38:19;;;;;;;25.15;2.95;;;40.30;35.20;;;;;;5027933;28;20501;-57
2023/08/15 02:40:46;;;;;;;29.15;3.92;;;40.20;35.20;;;;;;5027691;28;20048;-57
2023/08/15 02:43:12;;;;;;;21.73;3.58;;;40.10;35.30;;;;;;5028172;28;20047;-57
2023/08/15 02:45:39;;;;;;;15.13;3.28;;;40.10;35.60;;;;;;5028763;28;20018;-56
2023/08/15 02:48:05;;;;;;;13.45;2.95;;;40.00;35.90;;;;;;5028195;28;20029;-57
2023/08/15 02:50:32;;;;;;;18.45;3.03;;;40.00;36.40;;;;;;5028598;28;20024;-57
2023/08/15 02:52:58;;;;;;;48.30;7.15;;;39.90;36.80;;;;;;5028272;28;20039;-58
2023/08/15 02:55:24;;;;;;;16.73;4.75;;;39.90;37.50;;;;;;5027775;28;20501;-56
2023/08/15 02:57:51;;;;;;;22.65;5.38;;;39.70;36.50;;;;;;5027520;28;20021;-57
2023/08/15 03:00:17;;;;;;;658.80;53.78;;;39.70;36.80;;;;;;5028017;28;20029;-58
2023/08/15 03:02:43;;;;;;;55.22;8.15;;;39.60;37.20;;;;;;5027862;28;20105;-56
2023/08/15 03:05:10;;;;;;;31.98;6.47;;;39.50;37.40;;;;;;5029044;28;20564;-57
2023/08/15 03:07:36;;;;;;;17.17;6.95;;;39.40;37.20;;;;;;5026408;28;20044;-59
2023/08/15 03:10:03;;;;;;;56.33;9.13;;;39.40;38.00;;;;;;5027497;28;20036;-59
2023/08/15 03:12:29;;;;;;;96.72;11.73;;;39.30;38.20;;;;;;5028417;28;20584;-61
2023/08/15 03:14:57;;;;;;;47.65;7.57;;;39.30;38.20;;;;;;5027100;28;20017;-61
2023/08/15 03:17:24;;;;;;;144.48;13.13;;;39.20;37.80;;;;;;5027310;28;20026;-60
2023/08/15 03:19:50;;;;;;;88.70;10.13;;;39.20;38.30;;;;;;5026893;28;20480;-57
2023/08/15 03:22:16;;;;;;;43.38;6.65;;;39.10;38.10;;;;;;5026536;28;20017;-60
2023/08/15 03:24:43;;;;;;;35.20;4.90;;;39.00;38.10;;;;;;5027123;28;20104;-59
2023/08/15 03:27:09;;;;;;;33.22;4.53;;;39.00;38.00;;;;;;5027289;28;20037;-60
2023/08/15 03:29:36;;;;;;;38.97;4.90;;;39.00;37.90;;;;;;5026555;28;20531;-60
2023/08/15 03:32:03;;;;;;;33.30;4.57;;;39.00;38.10;;;;;;5026225;28;20474;-60
2023/08/15 03:34:29;;;;;;;24.63;4.20;;;39.00;38.50;;;;;;5028543;28;20010;-54
2023/08/15 03:36:56;;;;;;;19.70;3.95;;;39.00;38.50;;;;;;5027653;28;20112;-57
2023/08/15 03:39:23;;;;;;;29.33;4.65;;;39.00;38.10;;;;;;5027338;28;20028;-59
2023/08/15 03:41:49;;;;;;;34.83;4.60;;;39.00;37.90;;;;;;5026730;28;20032;-60
2023/08/15 03:44:16;;;;;;;42.28;5.13;;;39.00;37.70;;;;;;5026645;28;20021;-60
2023/08/15 03:46:42;;;;;;;48.05;4.88;;;39.00;37.90;;;;;;5026816;28;20025;-59
2023/08/15 03:49:08;;;;;;;38.78;5.13;;;39.00;38.20;;;;;;5026737;28;20543;-56
2023/08/15 03:51:35;;;;;;;40.17;4.70;;;39.00;38.40;;;;;;5027366;28;20051;-60
2023/08/15 03:54:01;;;;;;;32.35;4.00;;;38.90;37.50;;;;;;5026603;28;20013;-55
2023/08/15 03:56:28;;;;;;;44.55;6.50;;;38.90;38.50;;;;;;5025947;28;20028;-58
2023/08/15 03:58:54;;;;;;;36.08;4.75;;;38.90;38.00;;;;;;5027126;28;20441;-61
2023/08/15 04:01:20;;;;;;;20.38;3.80;;;38.90;37.70;;;;;;5026958;28;20051;-60
2023/08/15 04:03:54;;;;;;;31.67;4.70;;;38.80;37.50;;;;;;5028027;28;20048;-57
2023/08/15 04:06:20;;;;;;;28.63;5.68;;;38.80;37.60;;;;;;5026583;28;20028;-58
2023/08/15 04:08:47;;;;;;;24.42;5.78;;;38.80;37.70;;;;;;5024770;28;20183;-57
2023/08/15 04:11:13;;;;;;;30.48;6.35;;;38.70;38.20;;;;;;5026239;28;20014;-59
2023/08/15 04:13:40;;;;;;;39.13;7.20;;;38.70;37.90;;;;;;5025787;28;20074;-60
2023/08/15 04:16:06;;;;;;;33.10;7.18;;;38.70;38.00;;;;;;5026856;28;20086;-57
2023/08/15 04:18:35;;;;;;;40.70;7.65;;;38.60;38.30;;;;;;5027567;28;21541;-57
2023/08/15 04:21:01;;;;;;;44.15;7.28;;;38.60;38.30;;;;;;5027536;28;20018;-58
2023/08/15 04:23:28;;;;;;;36.08;7.82;;;38.50;38.50;;;;;;5026773;28;20723;-60
2023/08/15 04:25:54;;;;;;;36.70;14.20;;;38.40;38.20;;;;;;5027406;28;20014;-57
2023/08/15 04:28:21;;;;;;;42.45;13.90;;;38.30;38.10;;;;;;5027541;28;20537;-55
2023/08/15 04:30:47;;;;;;;37.95;11.15;;;38.30;38.60;;;;;;5023407;28;20044;-59
2023/08/15 04:33:14;;;;;;;36.58;8.25;;;38.20;38.40;;;;;;5027322;28;20094;-58
2023/08/15 04:35:40;;;;;;;33.65;7.40;;;38.10;38.20;;;;;;5027113;28;20036;-59
2023/08/15 04:38:07;;;;;;;33.33;7.13;;;38.10;38.60;;;;;;5026483;28;20385;-57
2023/08/15 04:40:39;;;;;;;31.23;7.13;;;38.10;38.50;;;;;;5026526;28;20017;-55
2023/08/15 04:43:08;;;;;;;29.70;6.63;;;38.00;39.00;;;;;;5025577;28;20576;-60
2023/08/15 04:45:43;;;;;;;38.88;6.65;;;37.90;38.70;;;;;;5026757;28;20052;-55
2023/08/15 04:48:10;;;;;;;27.65;5.90;;;37.90;39.10;;;;;;5027744;28;20029;-58
2023/08/15 04:50:37;;;;;;;25.00;6.25;;;37.80;38.30;;;;;;5026526;28;20014;-59
2023/08/15 04:53:05;;;;;;;42.63;7.22;;;37.80;39.20;;;;;;5026278;28;20387;-58
2023/08/15 04:55:31;;;;;;;27.83;5.63;;;37.70;40.10;;;;;;5026625;28;20047;-56
2023/08/15 04:57:58;;;;;;;29.70;6.53;;;37.70;39.60;;;;;;5027428;28;20106;-56
2023/08/15 05:00:25;;;;;;;27.85;5.85;;;37.60;39.20;;;;;;5027140;28;20452;-58
2023/08/15 05:02:51;;;;;;;38.03;6.22;;;37.60;40.90;;;;;;5026800;28;20100;-59
2023/08/15 05:05:18;;;;;;;41.30;7.20;;;37.50;40.00;;;;;;5028241;28;20131;-61
2023/08/15 05:07:44;;;;;;;43.72;6.22;;;37.50;39.90;;;;;;5026761;28;20066;-62
2023/08/15 05:10:10;;;;;;;28.17;5.47;;;37.40;39.80;;;;;;5027143;28;20071;-59
2023/08/15 05:12:37;;;;;;;37.22;6.75;;;37.40;39.60;;;;;;5025666;28;20049;-60
2023/08/15 05:15:07;;;;;;;27.95;5.22;;;37.40;39.90;;;;;;5026329;28;20048;-59
2023/08/15 05:17:34;;;;;;;25.70;5.13;;;37.40;40.00;;;;;;5025850;28;20049;-56
2023/08/15 05:20:01;;;;;;;24.98;5.45;;;37.30;41.00;;;;;;5026425;28;20463;-59
2023/08/15 05:22:28;;;;;;;24.73;5.03;;;37.20;40.90;;;;;;5024807;28;20060;-58
2023/08/15 05:24:54;;;;;;;30.92;4.72;;;37.20;40.90;;;;;;5026566;28;20085;-56
2023/08/15 05:27:21;;;;;;;19.70;5.25;;;37.10;40.80;;;;;;5025949;28;20061;-58
2023/08/15 05:29:47;;;;;;;20.13;4.70;;;37.00;41.00;;;;;;5025756;28;20520;-57
2023/08/15 05:32:13;;;;;;;23.63;4.68;;;37.00;40.90;;;;;;5024181;28;20110;-56
2023/08/15 05:34:40;;;;;;;30.90;4.63;;;36.90;41.00;;;;;;5026509;28;20518;-57
2023/08/15 05:37:06;;;;;;;22.00;4.68;;;36.90;40.80;;;;;;5026195;28;20127;-58
2023/08/15 05:39:33;;;;;;;29.30;5.28;;;36.90;40.90;;;;;;5026214;28;20136;-57
2023/08/15 05:41:59;;;;;;;31.88;5.35;;;36.90;41.10;;;;;;5026331;28;20074;-57
2023/08/15 05:44:26;;;;;;;30.60;5.47;;;36.90;41.50;;;;;;5026963;28;20059;-56
2023/08/15 05:46:52;;;;;;;29.25;5.40;;;36.80;41.80;;;;;;5026326;28;20067;-58
2023/08/15 05:49:19;;;;;;;32.80;5.90;;;36.80;41.80;;;;;;5026409;28;20040;-58
2023/08/15 05:51:45;;;;;;;33.92;6.15;;;36.80;41.50;;;;;;5026211;28;20100;-58
2023/08/15 05:54:12;;;;;;;30.52;6.72;;;36.90;41.40;;;;;;5027589;28;20040;-56
2023/08/15 05:56:40;;;;;;;29.27;5.97;;;36.90;41.70;;;;;;5029522;28;20069;-56
2023/08/15 05:59:07;;;;;;;32.85;6.15;;;36.80;41.70;;;;;;5029938;28;20046;-57
2023/08/15 06:01:34;;;;;;;36.30;5.53;;;36.90;41.40;;;;;;5030010;28;20049;-58
2023/08/15 06:04:01;;;;;;;34.10;5.47;;;36.90;41.20;;;;;;5028136;28;20150;-58
2023/08/15 06:06:27;;;;;;;30.13;4.45;;;36.90;40.90;;;;;;5028141;28;20067;-56
2023/08/15 06:08:53;;;;;;;33.25;4.85;;;36.80;40.60;;;;;;5030025;28;20047;-56
2023/08/15 06:11:20;;;;;;;21.33;3.67;;;36.80;40.60;;;;;;5030344;28;20066;-58
2023/08/15 06:13:47;;;;;;;30.88;4.28;;;36.80;40.50;;;;;;5029458;28;20056;-57
2023/08/15 06:16:13;;;;;;;34.15;4.05;;;36.80;40.60;;;;;;5029628;28;20061;-58
2023/08/15 06:18:39;;;;;;;24.73;4.13;;;36.80;40.70;;;;;;5029885;28;20564;-57
2023/08/15 06:21:06;;;;;;;30.23;3.60;;;36.80;40.60;;;;;;5029930;28;20057;-57
2023/08/15 06:23:32;;;;;;;27.42;3.92;;;36.80;40.70;;;;;;5028707;28;20517;-58
2023/08/15 06:25:58;;;;;;;36.30;4.32;;;36.80;41.10;;;;;;5030456;28;20056;-57
2023/08/15 06:28:25;;;;;;;28.48;3.65;;;36.80;40.50;;;;;;5030289;28;20096;-62
2023/08/15 06:30:51;;;;;;;24.25;3.28;;;36.80;40.20;;;;;;5029829;28;20054;-57
2023/08/15 06:33:18;;;;;;;25.60;3.72;;;36.80;40.70;;;;;;5029792;28;20050;-59
2023/08/15 06:35:44;;;;;;;37.08;3.75;;;36.80;40.60;;;;;;5029466;28;20144;-57
2023/08/15 06:38:10;;;;;;;24.63;3.30;;;36.70;40.40;;;;;;5029121;28;20052;-56
2023/08/15 06:40:37;;;;;;;25.90;3.20;;;36.70;40.60;;;;;;5029499;28;20051;-57
2023/08/15 06:43:03;;;;;;;23.55;3.28;;;36.70;41.00;;;;;;5030295;28;20047;-56
2023/08/15 06:45:30;;;;;;;30.67;3.40;;;36.60;40.90;;;;;;5029360;28;20046;-56
2023/08/15 06:47:56;;;;;;;33.40;3.38;;;36.60;41.20;;;;;;5029203;28;20088;-60
2023/08/15 06:50:23;;;;;;;18.88;3.03;;;36.60;41.70;;;;;;5028950;28;20554;-57
2023/08/15 06:52:49;;;;;;;17.15;2.75;;;36.60;41.50;;;;;;5028748;28;20058;-58
2023/08/15 06:55:16;;;;;;;25.00;3.10;;;36.60;41.20;;;;;;5029086;28;20065;-60
2023/08/15 06:57:42;;;;;;;17.23;2.85;;;36.50;41.20;;;;;;5027792;28;20139;-59
2023/08/15 07:00:11;;;;;;;23.67;3.80;;;36.50;41.50;;;;;;5028564;28;20051;-59
2023/08/15 07:02:39;;;;;;;19.15;2.72;;;36.50;41.40;;;;;;5027623;28;20136;-59
2023/08/15 07:05:07;;;;;;;15.38;2.60;;;36.50;41.20;;;;;;5026443;28;20052;-57
2023/08/15 07:07:34;;;;;;;20.92;3.28;;;36.50;41.40;;;;;;5026776;28;20062;-60
2023/08/15 07:10:00;;;;;;;20.85;3.15;;;36.40;41.60;;;;;;5027572;28;20053;-58
2023/08/15 07:12:26;;;;;;;21.27;3.00;;;36.40;41.30;;;;;;5028936;28;20058;-60
2023/08/15 07:14:53;;;;;;;18.02;2.67;;;36.40;41.30;;;;;;5027700;28;20529;-59
2023/08/15 07:17:19;;;;;;;19.45;3.28;;;36.40;41.70;;;;;;5027570;28;20056;-59
2023/08/15 07:19:46;;;;;;;18.15;2.80;;;36.30;41.90;;;;;;5027464;28;20061;-55
2023/08/15 07:22:12;;;;;;;21.45;3.40;;;36.30;41.60;;;;;;5027108;28;20056;-57
2023/08/15 07:24:38;;;;;;;23.00;2.78;;;36.20;41.10;;;;;;5027025;28;20051;-55
2023/08/15 07:27:05;;;;;;;19.13;3.22;;;36.20;41.40;;;;;;5027421;28;20070;-59
2023/08/15 07:29:31;;;;;;;11.25;2.70;;;36.20;41.70;;;;;;5027568;28;20053;-58
2023/08/15 07:31:58;;;;;;;13.48;2.80;;;36.10;41.60;;;;;;5027524;28;20050;-60
2023/08/15 07:34:24;;;;;;;11.45;3.00;;;36.10;41.60;;;;;;5027591;28;20053;-59
2023/08/15 07:36:50;;;;;;;12.68;3.22;;;36.10;41.60;;;;;;5026925;28;20050;-56
2023/08/15 07:39:17;;;;;;;13.68;3.20;;;36.10;41.70;;;;;;5028343;28;20144;-57
2023/08/15 07:41:43;;;;;;;7.95;2.72;;;36.00;41.80;;;;;;5026995;28;20110;-57
2023/08/15 07:44:09;;;;;;;13.68;2.80;;;36.00;42.60;;;;;;5027063;28;20050;-59
2023/08/15 07:46:36;;;;;;;15.50;2.90;;;35.90;42.00;;;;;;5026002;28;20065;-57
2023/08/15 07:49:03;;;;;;;11.98;2.90;;;35.80;42.40;;;;;;5026716;28;20051;-57
2023/08/15 07:51:29;;;;;;;16.80;3.05;;;35.80;42.70;;;;;;5027407;28;20116;-59
2023/08/15 07:53:55;;;;;;;17.38;2.75;;;35.70;42.80;;;;;;5026948;28;20075;-56
2023/08/15 07:56:22;;;;;;;20.63;2.90;;;35.70;43.80;;;;;;5026826;28;20053;-57
2023/08/15 07:58:48;;;;;;;15.55;2.53;;;35.60;43.50;;;;;;5026924;28;20067;-61
2023/08/15 08:01:15;;;;;;;21.55;2.38;;;35.50;42.70;;;;;;5026947;28;20074;-59
2023/08/15 08:03:42;;;;;;;10.07;3.17;;;35.50;42.30;;;;;;5026014;28;20054;-60
2023/08/15 08:06:09;;;;;;;15.48;2.80;;;35.50;42.40;;;;;;5027593;28;20092;-62
2023/08/15 08:08:36;;;;;;;8.73;2.13;;;35.50;42.80;;;;;;5026542;28;20054;-57
2023/08/15 08:11:02;;;;;;;7.18;2.10;;;35.40;42.40;;;;;;5026687;28;20050;-58
2023/08/15 08:13:28;;;;;;;8.13;2.05;;;35.30;42.40;;;;;;5026538;28;20423;-56
2023/08/15 08:15:55;;;;;;;6.45;1.90;;;35.30;41.30;;;;;;5026701;28;20123;-61
2023/08/15 08:18:21;;;;;;;5.13;1.95;;;35.30;40.90;;;;;;5025750;28;20200;-56
2023/08/15 08:20:49;;;;;;;5.57;1.83;;;35.30;40.60;;;;;;5026926;28;20526;-59
2023/08/15 08:23:16;;;;;;;3.47;1.65;;;35.20;40.10;;;;;;5026132;28;21993;-58
2023/08/15 08:25:42;;;;;;;7.07;2.00;;;35.20;40.00;;;;;;5027253;28;20068;-58
2023/08/15 08:28:09;;;;;;;7.55;1.90;;;35.20;39.80;;;;;;5026557;28;20528;-58
2023/08/15 08:30:36;;;;;;;3.72;1.98;;;35.20;38.80;;;;;;5026858;28;20075;-58
2023/08/15 08:33:03;;;;;;;2.92;1.83;;;35.20;38.40;;;;;;5026832;28;20058;-58
2023/08/15 08:35:30;;;;;;;2.85;1.88;;;35.20;38.40;;;;;;5028112;28;20386;-57
2023/08/15 08:37:56;;;;;;;5.47;1.98;;;35.20;38.60;;;;;;5026731;28;20157;-57
2023/08/15 08:40:23;;;;;;;4.32;2.08;;;35.20;38.40;;;;;;5026609;28;20055;-58
2023/08/15 08:42:49;;;;;;;7.22;1.98;;;35.20;38.20;;;;;;5026148;28;20088;-58
2023/08/15 08:45:18;;;;;;;6.32;1.73;;;35.20;38.30;;;;;;5026449;28;20094;-57
2023/08/15 08:47:46;;;;;;;3.35;1.63;;;35.20;38.30;;;;;;5025801;28;20072;-60
2023/08/15 08:50:13;;;;;;;4.63;2.00;;;35.10;38.80;;;;;;5026439;28;20065;-58
2023/08/15 08:52:41;;;;;;;4.93;2.10;;;35.10;38.70;;;;;;5026114;28;20048;-59
2023/08/15 08:55:11;;;;;;;5.85;1.77;;;35.10;38.50;;;;;;5025739;28;20462;-61
2023/08/15 08:57:39;;;;;;;7.05;1.98;;;35.00;38.50;;;;;;5025836;28;20401;-56
2023/08/15 09:00:11;;;;;;;6.63;2.05;;;35.00;38.50;;;;;;5026310;28;20109;-58
2023/08/15 09:02:38;;;;;;;6.78;1.95;;;35.00;38.60;;;;;;5025562;28;20056;-59
2023/08/15 09:05:07;;;;;;;7.68;2.22;;;34.90;38.10;;;;;;5026845;28;20104;-59
2023/08/15 09:07:37;;;;;;;4.25;1.83;;;35.00;38.10;;;;;;5026165;28;21442;-59
2023/08/15 09:10:06;;;;;;;3.53;1.90;;;35.00;37.90;;;;;;5025956;28;20058;-57
2023/08/15 09:12:37;;;;;;;9.10;1.80;;;35.00;37.80;;;;;;5026085;28;20058;-61
2023/08/15 09:15:08;;;;;;;3.45;1.52;;;35.00;37.70;;;;;;5026107;28;20433;-58
2023/08/15 09:17:39;;;;;;;6.28;2.28;;;34.90;38.30;;;;;;5025320;28;20067;-58
2023/08/15 09:20:11;;;;;;;5.35;1.77;;;34.90;38.40;;;;;;5025565;28;20136;-58
2023/08/15 09:22:44;;;;;;;5.63;1.90;;;34.90;38.20;;;;;;5026091;28;20102;-58
2023/08/15 09:25:12;;;;;;;10.98;2.00;;;34.90;38.10;;;;;;5026333;28;20071;-58
2023/08/15 09:27:40;;;;;;;3.53;1.85;;;34.90;38.20;;;;;;5026054;28;20533;-59
2023/08/15 09:30:14;;;;;;;4.80;2.22;;;34.80;38.00;;;;;;5029068;28;20058;-54
2023/08/15 09:32:41;;;;;;;10.77;1.70;;;34.90;38.70;;;;;;5029827;28;20060;-57
2023/08/15 09:35:13;;;;;;;4.45;2.00;;;34.80;38.80;;;;;;5031213;28;20425;-57
2023/08/15 09:37:58;;;;;;;5.05;2.08;;;34.80;39.50;;;;;;5029753;28;20091;-56
2023/08/15 09:40:26;;;;;;;3.88;1.73;;;34.70;39.40;;;;;;5030400;28;20060;-59
2023/08/15 09:42:53;;;;;;;5.18;1.90;;;34.60;39.30;;;;;;5029426;28;20086;-57
2023/08/15 09:45:19;;;;;;;375.85;16.50;;;34.50;39.30;;;;;;5029633;28;20531;-58
2023/08/15 09:47:46;;;;;;;69.93;6.18;;;34.60;39.20;;;;;;5030042;28;20185;-60
2023/08/15 09:50:15;;;;;;;15.20;2.10;;;34.50;39.20;;;;;;5031031;28;20069;-59
2023/08/15 09:52:43;;;;;;;3.13;1.80;;;34.50;39.70;;;;;;5029474;28;20149;-58
2023/08/15 09:55:12;;;;;;;6.45;1.88;;;34.50;39.00;;;;;;5029020;28;20536;-56
2023/08/15 09:57:40;;;;;;;5.47;2.00;;;34.50;38.90;;;;;;5028840;28;20093;-57
2023/08/15 10:00:17;;;;;;;3.35;1.63;;;34.40;38.80;;;;;;5029850;28;20555;-60
2023/08/15 10:02:59;;;;;;;4.13;1.80;;;34.40;39.20;;;;;;5029745;28;20067;-57
2023/08/15 10:05:35;;;;;;;5.85;1.92;;;34.40;39.10;;;;;;5030408;28;20053;-60
2023/08/15 10:08:01;;;;;;;;;;;34.40;39.50;;;;;;5029880;28;20074;-57
2023/08/15 10:10:31;;;;;;;4.20;1.92;;;34.30;39.60;;;;;;5029957;28;19945;-57
2023/08/15 10:12:58;;;;;;;11.10;2.30;;;34.30;40.00;;;;;;5028860;28;20091;-58
2023/08/15 10:15:26;;;;;;;3.00;1.88;;;34.30;39.10;;;;;;5029726;28;20076;-57
2023/08/15 10:17:53;;;;;;;4.65;1.80;;;34.30;38.80;;;;;;5028474;28;20077;-58
2023/08/15 10:20:20;;;;;;;5.63;1.90;;;34.40;39.00;;;;;;5029905;28;20057;-59
2023/08/15 10:22:53;;;;;;;6.63;2.03;;;34.40;38.80;;;;;;5028992;28;20072;-58
2023/08/15 10:25:22;;;;;;;3.33;1.50;;;34.40;38.90;;;;;;5028712;28;20061;-56
2023/08/15 10:27:51;;;;;;;6.97;2.03;;;34.40;38.30;;;;;;5028037;28;20070;-56
2023/08/15 10:30:44;;;;;;;2.03;1.77;;;34.40;38.20;;;;;;5029210;28;20170;-57
2023/08/15 10:33:18;;;;;;;4.38;1.80;;;34.40;37.80;;;;;;5026802;28;20071;-57
2023/08/15 10:36:04;;;;;;;4.32;1.95;;;34.50;37.80;;;;;;5029561;28;20105;-58
2023/08/15 10:38:40;;;;;;;4.47;1.60;;;34.50;37.40;;;;;;5028453;28;20067;-57
2023/08/15 10:41:19;;;;;;;2.13;1.47;;;34.50;37.40;;;;;;5027988;28;20118;-59
2023/08/15 10:43:55;;;;;;;5.32;1.60;;;34.50;37.30;;;;;;5028777;28;20488;-57
2023/08/15 10:46:30;;;;;;;5.18;1.70;;;34.50;37.30;;;;;;5028517;28;20066;-57
2023/08/15 10:49:01;;;;;;;3.47;1.60;;;34.60;37.00;;;;;;5029628;28;20057;-57
2023/08/15 10:51:35;;;;;;;2.72;1.77;;;34.70;36.80;;;;;;5029068;28;20552;-58
2023/08/15 10:54:04;;;;;;;2.38;1.75;;;34.70;37.20;;;;;;5027899;28;20827;-55
2023/08/15 10:56:33;;;;;;;2.60;1.65;;;34.70;36.90;;;;;;5028055;28;20089;-54
2023/08/15 10:59:02;;;;;;;4.25;1.77;;;34.60;37.50;;;;;;5029531;28;20060;-58
2023/08/15 11:01:30;;;;;;;2.05;1.40;;;34.60;37.40;;;;;;5028557;28;20457;-61
2023/08/15 11:03:57;;;;;;;5.13;1.90;;;34.60;37.50;;;;;;5028643;28;20057;-58
2023/08/15 11:06:24;;;;;;;4.45;2.00;;;34.50;37.80;;;;;;5028218;28;20056;-58
2023/08/15 11:08:53;;;;;;;5.25;1.77;;;34.50;38.30;;;;;;5028549;28;20201;-56
2023/08/15 11:11:19;;;;;;;4.72;1.83;;;34.30;39.10;;;;;;5028315;28;20109;-59
2023/08/15 11:13:48;;;;;;;4.05;1.70;;;34.30;40.00;;;;;;5027893;28;20145;-58
2023/08/15 11:16:17;;;;;;;4.00;1.90;;;34.20;40.30;;;;;;5027838;28;20085;-56
2023/08/15 11:18:44;;;;;;;11.30;2.10;;;34.10;40.50;;;;;;5028038;28;20092;-59
2023/08/15 11:21:13;;;;;;;7.50;2.00;;;34.20;40.10;;;;;;5028588;28;20528;-60
2023/08/15 11:23:40;;;;;;;5.18;1.67;;;34.10;40.80;;;;;;5026534;28;20263;-59
2023/08/15 11:26:11;;;;;;;6.78;2.30;;;34.00;40.60;;;;;;5027527;28;20093;-59
2023/08/15 11:28:38;;;;;;;9.75;1.90;;;34.00;40.80;;;;;;5027751;28;20065;-57
2023/08/15 11:31:08;;;;;;;7.30;2.28;;;33.90;40.50;;;;;;5028229;28;20070;-57
2023/08/15 11:33:34;;;;;;;5.13;1.80;;;33.90;40.80;;;;;;5027649;28;20535;-57
2023/08/15 11:36:03;;;;;;;4.13;2.10;;;33.80;40.70;;;;;;5028610;28;20059;-59
2023/08/15 11:38:31;;;;;;;12.07;2.15;;;33.80;40.70;;;;;;5026770;28;20096;-59
2023/08/15 11:40:59;;;;;;;5.68;2.00;;;33.70;40.90;;;;;;5027649;28;20062;-58
2023/08/15 11:43:34;;;;;;;4.45;1.75;;;33.80;40.80;;;;;;5027035;28;20075;-54
2023/08/15 11:46:02;;;;;;;7.70;1.73;;;33.80;40.60;;;;;;5026800;28;20168;-57
2023/08/15 11:48:30;;;;;;;9.32;1.90;;;33.70;40.70;;;;;;5028020;28;20083;-59
2023/08/15 11:50:57;;;;;;;7.30;1.60;;;33.80;40.90;;;;;;5030491;28;20066;-57
2023/08/15 11:53:24;;;;;;;4.15;1.95;;;33.70;41.50;;;;;;5028665;28;20128;-55
2023/08/15 11:55:52;;;;;;;7.15;2.20;;;33.70;42.40;;;;;;5030030;28;20555;-59
2023/08/15 11:58:31;;;;;;;4.53;1.85;;;33.60;42.10;;;;;;5028033;28;20113;-58
2023/08/15 12:01:02;;;;;;;2.67;1.35;;;33.60;41.20;;;;;;5028941;28;20125;-59
2023/08/15 12:03:32;;;;;;;7.97;2.00;;;33.70;41.20;;;;;;5027178;28;20453;-57
2023/08/15 12:06:01;;;;;;;7.30;2.28;;;33.60;41.60;;;;;;5027597;28;20471;-57
2023/08/15 12:08:28;;;;;;;8.65;2.03;;;33.60;41.90;;;;;;5027563;28;20129;-56
2023/08/15 12:10:57;;;;;;;3.40;1.70;;;33.60;42.30;;;;;;5027262;28;20085;-57
2023/08/15 12:13:33;;;;;;;4.95;2.00;;;33.50;42.90;;;;;;5026431;28;20052;-56
2023/08/15 12:16:00;;;;;;;8.60;2.20;;;33.50;42.60;;;;;;5027299;28;20376;-58
2023/08/15 12:18:27;;;;;;;9.20;2.30;;;33.40;42.80;;;;;;5026984;28;20567;-60
2023/08/15 12:20:55;;;;;;;7.47;2.05;;;33.40;42.70;;;;;;5027207;28;20071;-56
2023/08/15 12:23:21;;;;;;;12.98;2.40;;;33.40;42.80;;;;;;5026927;28;20074;-57
2023/08/15 12:25:48;;;;;;;6.88;2.55;;;33.30;43.20;;;;;;5027791;28;20077;-58
2023/08/15 12:28:14;;;;;;;7.50;2.47;;;33.30;43.30;;;;;;5026433;28;20077;-57
2023/08/15 12:30:41;;;;;;;10.45;2.75;;;33.20;44.00;;;;;;5026851;28;20066;-59
2023/08/15 12:33:08;;;;;;;13.27;5.72;;;33.10;44.40;;;;;;5027062;28;20061;-57
2023/08/15 12:35:34;;;;;;;27.00;11.75;;;33.10;44.30;;;;;;5026772;28;20516;-55
2023/08/15 12:38:01;;;;;;;46.55;27.08;;;33.00;43.90;;;;;;5026157;28;20808;-58
2023/08/15 12:40:27;;;;;;;47.75;26.73;;;33.00;43.50;;;;;;5026939;28;20068;-56
2023/08/15 12:42:53;;;;;;;44.53;23.23;;;32.90;43.60;;;;;;5026691;28;20062;-57